ΕΜΥ, Εθνική Μετεωρολογική Υπηρεσία - Δελτία Καιρού, Προγνώσεις

ΑΕΡΟΝΑΥΤΙΛΙΑ

GREEK AIRPORTS CODES

TAF LGKF 020200Z 0203/0212 33013KT 9999 SCT020 SCT070 TEMPO 0203/0210 SCT010 BKN020=

EUROPEAN AIRPORTS CODES

UUWW 020330Z 23006MPS 9999 OVC022 01/M02 Q1002 R24/290050NOSIG=